createdAt,value
2018-09-10T00:00:22.837Z,5.20
2018-09-10T00:01:22.837Z,4.90
2018-09-10T00:02:22.835Z,5.40
2018-09-10T00:03:22.839Z,5.20
2018-09-10T00:04:22.831Z,5.50
2018-09-10T00:05:22.830Z,5.20
2018-09-10T00:06:22.831Z,5.30
2018-09-10T00:07:22.826Z,5.70
2018-09-10T00:08:22.825Z,5.30
2018-09-10T00:09:22.822Z,5.30
2018-09-10T00:10:22.822Z,5.40
2018-09-10T00:11:22.820Z,5.60
2018-09-10T00:12:22.818Z,5.50
2018-09-10T00:13:22.815Z,5.20
2018-09-10T00:14:22.817Z,5.40
2018-09-10T00:15:22.812Z,5.40
2018-09-10T00:16:22.811Z,5.60
2018-09-10T00:17:22.809Z,5.50
2018-09-10T00:18:22.809Z,5.90
2018-09-10T00:19:22.804Z,5.90
2018-09-10T00:20:22.805Z,5.20
2018-09-10T00:21:22.802Z,5.30
2018-09-10T00:22:22.802Z,5.60
2018-09-10T00:23:22.798Z,5.20
2018-09-10T00:24:22.796Z,5.30
2018-09-10T00:25:22.794Z,5.70
2018-09-10T00:26:22.799Z,5.40
2018-09-10T00:27:22.791Z,5.60
2018-09-10T00:28:22.787Z,5.20
2018-09-10T00:29:22.788Z,5.40
2018-09-10T00:30:22.787Z,5.30
2018-09-10T00:31:22.782Z,5.30
2018-09-10T00:32:22.783Z,5.70
2018-09-10T00:33:22.780Z,5.30
2018-09-10T00:34:22.779Z,5.20
2018-09-10T00:35:22.784Z,5.20
2018-09-10T00:36:22.776Z,5.10
2018-09-10T00:37:22.773Z,5.30
2018-09-10T00:38:22.773Z,5.20
2018-09-10T00:39:22.768Z,5.10
2018-09-10T00:40:22.765Z,5.20
2018-09-10T00:41:22.767Z,5.20
2018-09-10T00:42:22.768Z,5.30
2018-09-10T00:43:23.567Z,5.20
2018-09-10T00:44:22.762Z,5.00
2018-09-10T00:45:22.758Z,5.00
2018-09-10T00:46:22.756Z,5.50
2018-09-10T00:47:22.763Z,4.70
2018-09-10T00:48:22.752Z,5.10
2018-09-10T00:49:22.749Z,4.90
2018-09-10T00:50:22.753Z,5.00
2018-09-10T00:51:22.741Z,5.10
2018-09-10T00:52:22.744Z,5.30
2018-09-10T00:53:22.751Z,5.20
2018-09-10T00:54:22.740Z,5.00
2018-09-10T00:55:22.743Z,5.00
2018-09-10T00:56:22.734Z,4.70
2018-09-10T00:57:22.734Z,4.50
2018-09-10T00:58:22.733Z,5.10
2018-09-10T00:59:22.729Z,5.30
2018-09-10T01:00:22.727Z,5.00
2018-09-10T01:01:22.725Z,5.10
2018-09-10T01:02:22.724Z,5.20
2018-09-10T01:03:22.721Z,5.40
2018-09-10T01:04:22.715Z,5.30
2018-09-10T01:05:22.719Z,4.90
2018-09-10T01:06:22.717Z,5.50
2018-09-10T01:07:22.711Z,5.00
2018-09-10T01:08:22.714Z,5.10
2018-09-10T01:09:22.710Z,4.90
2018-09-10T01:10:22.706Z,5.30
2018-09-10T01:11:22.704Z,5.10
2018-09-10T01:12:22.704Z,5.30
2018-09-10T01:13:22.699Z,5.50
2018-09-10T01:14:22.693Z,4.80
2018-09-10T01:15:22.695Z,5.20
2018-09-10T01:16:22.692Z,5.20
2018-09-10T01:17:22.689Z,5.10
2018-09-10T01:18:22.690Z,5.00
2018-09-10T01:19:22.686Z,5.10
2018-09-10T01:20:22.684Z,4.80
2018-09-10T01:21:22.683Z,4.80
2018-09-10T01:22:22.683Z,5.10
2018-09-10T01:23:22.678Z,5.40
2018-09-10T01:24:22.677Z,5.40
2018-09-10T01:25:22.672Z,5.30
2018-09-10T01:26:22.672Z,5.30
2018-09-10T01:27:22.669Z,5.40
2018-09-10T01:28:22.666Z,5.30
2018-09-10T01:29:22.662Z,5.30
2018-09-10T01:30:22.660Z,5.10
2018-09-10T01:31:22.658Z,5.20
2018-09-10T01:32:22.656Z,5.30
2018-09-10T01:33:22.654Z,5.50
2018-09-10T01:34:22.654Z,5.40
2018-09-10T01:35:22.649Z,5.20
2018-09-10T01:36:22.647Z,5.30
2018-09-10T01:37:22.644Z,5.40
2018-09-10T01:38:22.642Z,5.20
2018-09-10T01:39:22.640Z,5.10
2018-09-10T01:40:22.637Z,5.60
2018-09-10T01:41:22.634Z,5.20
2018-09-10T01:42:22.633Z,5.30
2018-09-10T01:43:22.629Z,5.30
2018-09-10T01:44:22.626Z,4.80
2018-09-10T01:45:22.626Z,5.10
2018-09-10T01:46:22.623Z,5.10
2018-09-10T01:47:22.621Z,5.10
2018-09-10T01:48:22.620Z,5.10
2018-09-10T01:49:22.614Z,5.00
2018-09-10T01:50:22.614Z,5.00
2018-09-10T01:51:22.612Z,5.00
2018-09-10T01:52:22.607Z,5.10
2018-09-10T01:53:22.605Z,5.30
2018-09-10T01:54:22.606Z,5.20
2018-09-10T01:55:22.607Z,5.30
2018-09-10T01:56:22.598Z,5.70
2018-09-10T01:57:22.599Z,5.50
2018-09-10T01:58:22.598Z,5.30
2018-09-10T01:59:22.590Z,5.40
2018-09-10T02:00:22.594Z,5.30
2018-09-10T02:01:22.586Z,4.80
2018-09-10T02:02:22.584Z,5.10
2018-09-10T02:03:22.586Z,5.10
2018-09-10T02:04:22.576Z,5.20
2018-09-10T02:05:22.577Z,5.40
2018-09-10T02:06:22.575Z,5.50
2018-09-10T02:07:22.575Z,5.30
2018-09-10T02:08:22.567Z,5.40
2018-09-10T02:09:22.611Z,5.00
2018-09-10T02:10:22.564Z,5.30
2018-09-10T02:11:22.558Z,5.30
2018-09-10T02:12:22.560Z,5.10
2018-09-10T02:13:22.555Z,5.30
2018-09-10T02:14:22.553Z,5.10
2018-09-10T02:15:22.551Z,5.60
2018-09-10T02:16:22.549Z,5.40
2018-09-10T02:17:22.557Z,5.20
2018-09-10T02:18:22.545Z,5.40
2018-09-10T02:19:22.547Z,5.30
2018-09-10T02:20:22.626Z,5.40
2018-09-10T02:21:22.538Z,5.40
2018-09-10T02:22:22.530Z,5.80
2018-09-10T02:23:22.532Z,6.10
2018-09-10T02:24:22.533Z,5.60
2018-09-10T02:25:22.528Z,5.60
2018-09-10T02:26:22.526Z,6.00
2018-09-10T02:27:22.585Z,5.50
2018-09-10T02:28:22.522Z,6.00
2018-09-10T02:29:22.546Z,5.80
2018-09-10T02:30:22.517Z,5.90
2018-09-10T02:31:22.518Z,5.60
2018-09-10T02:32:22.511Z,5.80
2018-09-10T02:33:22.508Z,5.70
2018-09-10T02:34:22.507Z,5.30
2018-09-10T02:35:22.504Z,5.90
2018-09-10T02:36:22.505Z,5.80
2018-09-10T02:37:22.500Z,5.70
2018-09-10T02:38:22.533Z,5.60
2018-09-10T02:39:22.495Z,6.20
2018-09-10T02:40:22.494Z,5.70
2018-09-10T02:41:22.500Z,5.60
2018-09-10T02:42:22.490Z,6.00
2018-09-10T02:43:22.487Z,5.90
2018-09-10T02:44:22.483Z,6.00
2018-09-10T02:45:22.487Z,6.10
2018-09-10T02:46:22.484Z,6.10
2018-09-10T02:47:22.477Z,6.10
2018-09-10T02:48:22.479Z,5.90
2018-09-10T02:49:22.477Z,5.80
2018-09-10T02:50:22.471Z,5.60
2018-09-10T02:51:22.471Z,5.80
2018-09-10T02:52:22.466Z,5.50
2018-09-10T02:53:22.462Z,5.90
2018-09-10T02:54:22.464Z,5.80
2018-09-10T02:55:22.461Z,6.20
2018-09-10T02:56:22.455Z,6.30
2018-09-10T02:57:22.456Z,5.90
2018-09-10T02:58:22.452Z,6.30
2018-09-10T02:59:22.451Z,5.60
2018-09-10T03:00:22.451Z,5.90
2018-09-10T03:01:22.447Z,6.10
2018-09-10T03:02:22.445Z,6.40
2018-09-10T03:03:22.447Z,6.00
2018-09-10T03:04:22.444Z,6.30
2018-09-10T03:05:22.438Z,6.40
2018-09-10T03:06:22.436Z,6.00
2018-09-10T03:07:22.434Z,6.30
2018-09-10T03:08:22.434Z,6.20
2018-09-10T03:09:22.429Z,5.90
2018-09-10T03:10:22.442Z,5.70
2018-09-10T03:11:22.425Z,6.00
2018-09-10T03:12:22.422Z,6.00
2018-09-10T03:13:23.036Z,6.10
2018-09-10T03:14:22.424Z,5.80
2018-09-10T03:15:22.426Z,6.00
2018-09-10T03:16:22.414Z,6.00
2018-09-10T03:17:22.412Z,5.80
2018-09-10T03:18:22.411Z,5.90
2018-09-10T03:19:22.403Z,6.20
2018-09-10T03:20:22.408Z,5.90
2018-09-10T03:21:22.405Z,6.20
2018-09-10T03:22:22.402Z,5.90
2018-09-10T03:23:22.395Z,6.00
2018-09-10T03:24:22.397Z,6.00
2018-09-10T03:25:22.395Z,6.50
2018-09-10T03:26:22.397Z,5.80
2018-09-10T03:27:22.394Z,6.00
2018-09-10T03:28:22.386Z,5.90
2018-09-10T03:29:22.384Z,6.40
2018-09-10T03:30:22.384Z,6.10
2018-09-10T03:31:22.380Z,6.30
2018-09-10T03:32:22.378Z,6.10
2018-09-10T03:33:22.415Z,5.70
2018-09-10T03:34:22.373Z,6.10
2018-09-10T03:35:22.371Z,6.10
2018-09-10T03:36:22.385Z,5.90
2018-09-10T03:37:22.370Z,5.90
2018-09-10T03:38:22.376Z,6.10
2018-09-10T03:39:22.365Z,6.00
2018-09-10T03:40:22.359Z,5.90
2018-09-10T03:41:22.358Z,6.40
2018-09-10T03:42:22.353Z,6.00
2018-09-10T03:43:22.351Z,6.00
2018-09-10T03:44:22.356Z,6.00
2018-09-10T03:45:22.349Z,6.60
2018-09-10T03:46:22.347Z,6.00
2018-09-10T03:47:22.481Z,6.10
2018-09-10T03:48:22.342Z,6.70
2018-09-10T03:49:22.340Z,6.10
2018-09-10T03:50:22.335Z,6.20
2018-09-10T03:51:22.335Z,6.40
2018-09-10T03:52:22.332Z,6.50
2018-09-10T03:53:22.329Z,6.20
2018-09-10T03:54:22.328Z,6.10
2018-09-10T03:55:22.321Z,6.20
2018-09-10T03:56:22.328Z,6.60
2018-09-10T03:57:22.321Z,6.50
2018-09-10T03:58:22.315Z,6.30
2018-09-10T03:59:22.313Z,6.50
2018-09-10T04:00:22.311Z,6.40
2018-09-10T04:01:22.314Z,6.50
2018-09-10T04:02:22.307Z,6.30
2018-09-10T04:03:22.307Z,6.70
2018-09-10T04:04:22.301Z,6.20
2018-09-10T04:05:22.300Z,7.00
2018-09-10T04:06:22.300Z,6.80
2018-09-10T04:07:22.293Z,6.50
2018-09-10T04:08:22.296Z,6.70
2018-09-10T04:09:22.293Z,6.60
2018-09-10T04:10:22.294Z,6.70
2018-09-10T04:11:22.284Z,6.50
2018-09-10T04:12:22.283Z,6.40
2018-09-10T04:13:22.281Z,6.80
2018-09-10T04:14:22.277Z,6.60
2018-09-10T04:15:22.274Z,6.80
2018-09-10T04:16:22.272Z,6.70
2018-09-10T04:17:22.340Z,6.60
2018-09-10T04:18:22.268Z,6.50
2018-09-10T04:19:22.275Z,6.10
2018-09-10T04:20:22.261Z,6.80
2018-09-10T04:21:22.264Z,6.50
2018-09-10T04:22:22.261Z,6.10
2018-09-10T04:23:22.254Z,6.50
2018-09-10T04:24:22.251Z,6.50
2018-09-10T04:25:22.254Z,6.30
2018-09-10T04:26:22.249Z,6.40
2018-09-10T04:27:22.245Z,6.60
2018-09-10T04:28:22.244Z,6.50
2018-09-10T04:29:22.240Z,6.20
2018-09-10T04:30:22.240Z,6.50
2018-09-10T04:31:22.236Z,6.60
2018-09-10T04:32:22.232Z,6.60
2018-09-10T04:33:22.231Z,6.20
2018-09-10T04:34:22.233Z,6.20
2018-09-10T04:35:22.226Z,6.10
2018-09-10T04:36:22.228Z,6.60
2018-09-10T04:37:22.225Z,6.30
2018-09-10T04:38:22.216Z,6.60
2018-09-10T04:39:22.217Z,6.40
2018-09-10T04:40:22.211Z,6.40
2018-09-10T04:41:22.212Z,6.60
2018-09-10T04:42:22.217Z,6.30
2018-09-10T04:43:22.207Z,6.20
2018-09-10T04:44:22.203Z,6.40
2018-09-10T04:45:22.202Z,6.50
2018-09-10T04:46:22.199Z,6.30
2018-09-10T04:47:22.198Z,6.50
2018-09-10T04:48:22.189Z,6.30
2018-09-10T04:49:22.192Z,6.60
2018-09-10T04:50:22.190Z,6.90
2018-09-10T04:51:22.193Z,6.70
2018-09-10T04:52:22.191Z,6.50
2018-09-10T04:53:22.182Z,6.50
2018-09-10T04:54:22.179Z,6.40
2018-09-10T04:55:22.181Z,6.30
2018-09-10T04:56:22.171Z,6.20
2018-09-10T04:57:22.172Z,6.50
2018-09-10T04:58:22.170Z,6.00
2018-09-10T04:59:22.169Z,6.50
2018-09-10T05:00:22.161Z,6.50
2018-09-10T05:01:22.162Z,6.20
2018-09-10T05:02:22.161Z,6.60
2018-09-10T05:03:22.155Z,6.30
2018-09-10T05:04:22.182Z,6.80
2018-09-10T05:05:22.154Z,6.50
2018-09-10T05:06:22.152Z,6.50
2018-09-10T05:07:22.147Z,6.30
2018-09-10T05:08:22.162Z,6.10
2018-09-10T05:09:22.142Z,6.20
2018-09-10T05:10:22.139Z,6.40
2018-09-10T05:11:22.136Z,6.40
2018-09-10T05:12:22.139Z,6.40
2018-09-10T05:13:22.136Z,5.70
2018-09-10T05:14:22.134Z,6.20
2018-09-10T05:15:22.132Z,6.20
2018-09-10T05:16:22.126Z,6.20
2018-09-10T05:17:22.137Z,6.30
2018-09-10T05:18:22.133Z,6.30
2018-09-10T05:19:22.119Z,6.20
2018-09-10T05:20:22.115Z,6.30
2018-09-10T05:21:22.115Z,6.20
2018-09-10T05:22:22.114Z,6.10
2018-09-10T05:23:22.110Z,6.50
2018-09-10T05:24:22.109Z,6.20
2018-09-10T05:25:22.106Z,6.30
2018-09-10T05:26:22.105Z,6.50
2018-09-10T05:27:22.104Z,6.30
2018-09-10T05:28:22.104Z,6.60
2018-09-10T05:29:22.100Z,6.50
2018-09-10T05:30:22.095Z,6.20
2018-09-10T05:31:22.092Z,6.40
2018-09-10T05:32:22.091Z,6.60
2018-09-10T05:33:22.090Z,6.60
2018-09-10T05:34:22.092Z,6.00
2018-09-10T05:35:22.085Z,6.90
2018-09-10T05:36:22.083Z,6.50
2018-09-10T05:37:22.080Z,6.50
2018-09-10T05:38:22.086Z,6.60
2018-09-10T05:39:22.077Z,7.10
2018-09-10T05:40:22.077Z,6.80
2018-09-10T05:41:22.076Z,7.30
2018-09-10T05:42:22.069Z,6.90
2018-09-10T05:43:22.065Z,7.10
2018-09-10T05:44:22.069Z,6.60
2018-09-10T05:45:22.070Z,7.20
2018-09-10T05:46:22.071Z,6.90
2018-09-10T05:47:22.076Z,6.70
2018-09-10T05:48:22.065Z,7.30
2018-09-10T05:49:22.065Z,7.10
2018-09-10T05:50:22.058Z,6.60
2018-09-10T05:51:22.054Z,6.70
2018-09-10T05:52:22.054Z,6.70
2018-09-10T05:53:22.114Z,6.60
2018-09-10T05:54:22.052Z,6.80
2018-09-10T05:55:22.109Z,6.80
2018-09-10T05:56:22.049Z,7.00
2018-09-10T05:57:22.044Z,6.80
2018-09-10T05:58:22.041Z,6.20
2018-09-10T05:59:22.043Z,6.50
2018-09-10T06:00:22.044Z,6.30
2018-09-10T06:01:22.043Z,6.20
2018-09-10T06:02:22.041Z,6.10
2018-09-10T06:03:22.045Z,6.10
2018-09-10T06:04:22.037Z,6.30
2018-09-10T06:05:22.037Z,6.20
2018-09-10T06:06:22.042Z,6.80
2018-09-10T06:07:22.035Z,5.80
2018-09-10T06:08:22.036Z,6.20
2018-09-10T06:09:22.035Z,5.70
2018-09-10T06:10:22.051Z,6.00
2018-09-10T06:11:22.027Z,6.20
2018-09-10T06:12:22.032Z,6.10
2018-09-10T06:13:22.032Z,5.80
2018-09-10T06:14:22.033Z,6.30
2018-09-10T06:15:22.031Z,6.40
2018-09-10T06:16:22.034Z,6.60
2018-09-10T06:17:22.032Z,6.20
2018-09-10T06:18:22.032Z,6.00
2018-09-10T06:19:22.032Z,6.40
2018-09-10T06:20:22.035Z,5.80
2018-09-10T06:21:22.038Z,6.10
2018-09-10T06:22:22.032Z,5.80
2018-09-10T06:23:22.037Z,5.50
2018-09-10T06:24:22.036Z,5.60
2018-09-10T06:25:22.038Z,5.40
2018-09-10T06:26:22.039Z,4.60
2018-09-10T06:27:22.042Z,4.00
2018-09-10T06:28:22.037Z,3.90
2018-09-10T06:29:22.042Z,4.10
2018-09-10T06:30:22.123Z,4.60
2018-09-10T06:31:22.048Z,4.30
2018-09-10T06:32:22.050Z,4.10
2018-09-10T06:33:22.051Z,3.80
2018-09-10T06:34:22.055Z,3.50
2018-09-10T06:35:22.055Z,3.90
2018-09-10T06:36:22.056Z,3.90
2018-09-10T06:37:22.061Z,3.80
2018-09-10T06:38:22.060Z,3.80
2018-09-10T06:39:22.066Z,3.90
2018-09-10T06:40:22.066Z,3.70
2018-09-10T06:41:22.065Z,3.80
2018-09-10T06:42:22.066Z,3.90
2018-09-10T06:43:22.068Z,4.00
2018-09-10T06:44:22.073Z,4.00
2018-09-10T06:45:22.073Z,4.40
2018-09-10T06:46:22.073Z,4.50
2018-09-10T06:47:22.074Z,4.20
2018-09-10T06:48:22.593Z,4.20
2018-09-10T06:49:22.079Z,3.70
2018-09-10T06:50:22.599Z,4.40
2018-09-10T06:51:22.081Z,4.20
2018-09-10T06:52:22.084Z,4.20
2018-09-10T06:53:22.120Z,4.20
2018-09-10T06:54:22.090Z,4.50
2018-09-10T06:55:22.089Z,4.00
2018-09-10T06:56:22.089Z,4.00
2018-09-10T06:57:22.088Z,4.10
2018-09-10T06:58:22.095Z,3.90
2018-09-10T06:59:22.097Z,3.60
2018-09-10T07:00:22.182Z,3.30
2018-09-10T07:01:22.112Z,3.30
2018-09-10T07:02:22.102Z,3.20
2018-09-10T07:03:22.102Z,3.50
2018-09-10T07:04:22.107Z,3.40
2018-09-10T07:05:22.107Z,3.70
2018-09-10T07:06:22.176Z,3.40
2018-09-10T07:07:22.113Z,3.20
2018-09-10T07:08:22.115Z,3.20
2018-09-10T07:09:22.118Z,3.10
2018-09-10T07:10:22.117Z,3.00
2018-09-10T07:11:22.123Z,2.80
2018-09-10T07:12:22.127Z,2.80
2018-09-10T07:13:22.130Z,2.70
2018-09-10T07:14:22.137Z,2.60
2018-09-10T07:15:22.136Z,2.50
2018-09-10T07:16:22.136Z,2.40
2018-09-10T07:17:22.142Z,2.50
2018-09-10T07:18:22.145Z,2.50
2018-09-10T07:19:22.149Z,2.40
2018-09-10T07:20:22.154Z,2.30
2018-09-10T07:21:22.156Z,2.40
2018-09-10T07:22:22.156Z,2.60
2018-09-10T07:23:22.159Z,2.60
2018-09-10T07:24:22.162Z,2.50
2018-09-10T07:25:22.166Z,2.80
2018-09-10T07:26:22.166Z,2.50
2018-09-10T07:27:22.168Z,2.30
2018-09-10T07:28:22.173Z,2.70
2018-09-10T07:29:22.260Z,2.40
2018-09-10T07:30:22.180Z,2.30
2018-09-10T07:31:22.180Z,2.20
2018-09-10T07:32:22.194Z,2.30
2018-09-10T07:33:22.189Z,2.50
2018-09-10T07:34:22.196Z,2.20
2018-09-10T07:35:22.204Z,2.50
2018-09-10T07:36:22.197Z,2.50
2018-09-10T07:37:22.202Z,2.30
2018-09-10T07:38:22.206Z,2.50
2018-09-10T07:39:22.211Z,2.40
2018-09-10T07:40:22.210Z,2.40
2018-09-10T07:41:22.304Z,2.40
2018-09-10T07:42:22.216Z,2.40
2018-09-10T07:43:23.205Z,2.40
2018-09-10T07:44:22.221Z,2.10
2018-09-10T07:45:22.226Z,2.50
2018-09-10T07:46:22.226Z,2.50
2018-09-10T07:47:22.230Z,2.50
2018-09-10T07:48:22.232Z,2.40
2018-09-10T07:49:22.239Z,2.90
2018-09-10T07:50:22.241Z,2.80
2018-09-10T07:51:22.240Z,2.50
2018-09-10T07:52:22.244Z,2.80
2018-09-10T07:53:22.250Z,2.60
2018-09-10T07:54:22.272Z,2.50
2018-09-10T07:55:22.508Z,2.30
2018-09-10T07:56:22.256Z,2.50
2018-09-10T07:57:22.379Z,2.40
2018-09-10T07:58:22.261Z,2.50
2018-09-10T07:59:22.261Z,2.10
2018-09-10T08:00:22.264Z,2.20
2018-09-10T08:01:22.317Z,2.30
2018-09-10T08:02:22.274Z,2.40
2018-09-10T08:03:22.277Z,2.30
2018-09-10T08:04:22.275Z,3.00
2018-09-10T08:05:22.283Z,3.80
2018-09-10T08:06:22.308Z,3.60
2018-09-10T08:07:22.295Z,2.40
2018-09-10T08:08:22.291Z,2.40
2018-09-10T08:09:22.389Z,2.20
2018-09-10T08:10:22.304Z,2.40
2018-09-10T08:11:22.302Z,2.10
2018-09-10T08:12:22.304Z,2.10
2018-09-10T08:13:22.362Z,2.20
2018-09-10T08:14:22.310Z,2.10
2018-09-10T08:15:22.312Z,2.30
2018-09-10T08:16:22.317Z,1.80
2018-09-10T08:17:22.321Z,2.00
2018-09-10T08:18:22.324Z,2.10
2018-09-10T08:19:22.327Z,2.30
2018-09-10T08:20:22.332Z,2.30
2018-09-10T08:21:22.335Z,2.00
2018-09-10T08:22:22.500Z,1.90
2018-09-10T08:23:22.340Z,2.00
2018-09-10T08:24:22.456Z,1.80
2018-09-10T08:25:22.348Z,2.00
2018-09-10T08:26:23.203Z,1.80
2018-09-10T08:27:23.142Z,1.60
2018-09-10T08:28:22.362Z,2.00
2018-09-10T08:29:22.361Z,1.70
2018-09-10T08:30:22.419Z,1.50
2018-09-10T08:31:22.654Z,1.70
2018-09-10T08:32:22.370Z,1.80
2018-09-10T08:33:22.373Z,1.60
2018-09-10T08:34:22.392Z,1.80
2018-09-10T08:35:22.381Z,1.80
2018-09-10T08:36:22.448Z,1.80
2018-09-10T08:37:22.604Z,1.70
2018-09-10T08:38:22.397Z,1.70
2018-09-10T08:39:22.462Z,1.80
2018-09-10T08:40:22.400Z,1.70
2018-09-10T08:41:22.403Z,1.80
2018-09-10T08:42:22.408Z,1.90
2018-09-10T08:43:22.413Z,1.60
2018-09-10T08:44:22.411Z,1.80
2018-09-10T08:45:22.419Z,2.00
2018-09-10T08:46:22.423Z,1.80
2018-09-10T08:47:22.431Z,1.80
2018-09-10T08:48:22.524Z,1.70
2018-09-10T08:49:22.434Z,1.80
2018-09-10T08:50:22.447Z,1.70
2018-09-10T08:51:22.462Z,1.70
2018-09-10T08:52:22.446Z,1.60
2018-09-10T08:53:22.453Z,1.60
2018-09-10T08:54:22.492Z,1.60
2018-09-10T08:55:22.571Z,1.60
2018-09-10T08:56:22.541Z,1.70
2018-09-10T08:57:22.467Z,1.60
2018-09-10T08:58:22.483Z,1.70
2018-09-10T08:59:22.472Z,1.50
2018-09-10T09:00:22.511Z,1.50
2018-09-10T09:01:22.480Z,1.50
2018-09-10T09:02:22.486Z,1.50
2018-09-10T09:03:23.163Z,1.60
2018-09-10T09:04:22.493Z,1.60
2018-09-10T09:05:22.499Z,1.70
2018-09-10T09:06:22.561Z,1.50
2018-09-10T09:07:23.220Z,1.60
2018-09-10T09:08:22.517Z,1.80
2018-09-10T09:09:22.516Z,1.40
2018-09-10T09:10:22.521Z,1.60
2018-09-10T09:11:22.570Z,1.40
2018-09-10T09:12:22.526Z,1.40
2018-09-10T09:13:22.619Z,1.40
2018-09-10T09:14:22.556Z,1.90
2018-09-10T09:15:22.638Z,1.60
2018-09-10T09:16:22.640Z,1.50
2018-09-10T09:17:22.575Z,1.40
2018-09-10T09:18:22.554Z,1.90
2018-09-10T09:19:22.558Z,1.70
2018-09-10T09:20:22.564Z,1.60
2018-09-10T09:21:22.641Z,1.70
2018-09-10T09:22:22.575Z,1.60
2018-09-10T09:23:22.601Z,1.80
2018-09-10T09:24:22.880Z,1.60
2018-09-10T09:25:22.589Z,1.60
2018-09-10T09:26:22.594Z,1.60
2018-09-10T09:27:22.594Z,1.50
2018-09-10T09:28:22.598Z,1.40
2018-09-10T09:29:22.607Z,1.60
2018-09-10T09:30:22.781Z,1.40
2018-09-10T09:31:22.613Z,1.70
2018-09-10T09:32:22.617Z,1.60
2018-09-10T09:33:22.620Z,1.70
2018-09-10T09:34:22.624Z,1.60
2018-09-10T09:35:22.630Z,1.40
2018-09-10T09:36:22.740Z,1.30
2018-09-10T09:37:22.642Z,1.70
2018-09-10T09:38:22.649Z,1.50
2018-09-10T09:39:22.649Z,1.70
2018-09-10T09:40:22.655Z,1.50
2018-09-10T09:41:22.661Z,1.50
2018-09-10T09:42:22.667Z,1.50
2018-09-10T09:43:22.677Z,1.60
2018-09-10T09:44:22.675Z,1.50
2018-09-10T09:45:22.679Z,1.70
2018-09-10T09:46:22.686Z,1.60
2018-09-10T09:47:22.689Z,1.50
2018-09-10T09:48:22.686Z,1.50
2018-09-10T09:49:22.882Z,1.50
2018-09-10T09:50:22.747Z,1.60
2018-09-10T09:51:22.701Z,1.70
2018-09-10T09:52:22.800Z,1.60
2018-09-10T09:53:22.727Z,1.70
2018-09-10T09:54:23.339Z,1.90
2018-09-10T09:55:23.180Z,1.60
2018-09-10T09:56:22.728Z,1.90
2018-09-10T09:57:22.729Z,1.70
2018-09-10T09:58:22.735Z,1.60
2018-09-10T09:59:22.738Z,1.60
2018-09-10T10:00:22.742Z,1.60
2018-09-10T10:01:22.755Z,1.70
2018-09-10T10:02:22.753Z,1.80
2018-09-10T10:03:22.756Z,1.70
2018-09-10T10:04:22.778Z,1.60
2018-09-10T10:05:22.765Z,1.80
2018-09-10T10:06:22.771Z,1.70
2018-09-10T10:07:23.016Z,1.60
2018-09-10T10:08:22.779Z,1.80
2018-09-10T10:09:22.785Z,1.70
2018-09-10T10:10:22.829Z,1.80
2018-09-10T10:11:22.910Z,1.60
2018-09-10T10:12:22.941Z,1.80
2018-09-10T10:13:22.813Z,1.90
2018-09-10T10:14:22.808Z,1.90
2018-09-10T10:15:22.813Z,1.80
2018-09-10T10:16:22.844Z,1.90
2018-09-10T10:17:22.822Z,2.00
2018-09-10T10:18:22.850Z,1.80
2018-09-10T10:19:22.858Z,1.70
2018-09-10T10:20:22.834Z,1.90
2018-09-10T10:21:22.836Z,1.90
2018-09-10T10:22:22.844Z,1.90
2018-09-10T10:23:22.848Z,1.90
2018-09-10T10:24:22.898Z,1.90
2018-09-10T10:25:22.908Z,1.90
2018-09-10T10:26:22.861Z,1.70
2018-09-10T10:27:22.871Z,1.70
2018-09-10T10:28:23.029Z,1.80
2018-09-10T10:29:22.876Z,1.70
2018-09-10T10:30:22.879Z,1.70
2018-09-10T10:31:22.887Z,1.60
2018-09-10T10:32:22.888Z,1.80
2018-09-10T10:33:22.892Z,1.60
2018-09-10T10:34:22.896Z,1.90
2018-09-10T10:35:22.909Z,1.80
2018-09-10T10:36:22.905Z,1.60
2018-09-10T10:37:22.909Z,1.50
2018-09-10T10:38:23.137Z,1.70
2018-09-10T10:39:22.961Z,1.50
2018-09-10T10:40:22.926Z,1.60
2018-09-10T10:41:23.040Z,1.60
2018-09-10T10:42:22.939Z,1.70
2018-09-10T10:43:22.942Z,1.70
2018-09-10T10:44:22.948Z,1.80
2018-09-10T10:45:22.957Z,1.80
2018-09-10T10:46:22.956Z,1.60
2018-09-10T10:47:23.012Z,1.60
2018-09-10T10:48:22.965Z,1.60
2018-09-10T10:49:22.973Z,1.50
2018-09-10T10:50:23.155Z,1.70
2018-09-10T10:51:22.976Z,1.60
2018-09-10T10:52:22.983Z,1.50
2018-09-10T10:53:22.986Z,1.60
2018-09-10T10:54:22.996Z,1.50
2018-09-10T10:55:22.999Z,1.50
2018-09-10T10:56:23.091Z,1.80
2018-09-10T10:57:23.707Z,1.80
2018-09-10T10:58:23.011Z,1.70
2018-09-10T10:59:23.017Z,1.70
2018-09-10T11:00:23.023Z,1.60
2018-09-10T11:01:23.027Z,1.70
2018-09-10T11:02:23.034Z,1.50
2018-09-10T11:03:23.037Z,1.60
2018-09-10T11:04:23.042Z,1.70
2018-09-10T11:05:23.049Z,1.90
2018-09-10T11:06:23.053Z,1.60
2018-09-10T11:07:23.061Z,1.80
2018-09-10T11:08:23.066Z,1.70
2018-09-10T11:09:23.063Z,1.70
2018-09-10T11:10:23.070Z,1.60
2018-09-10T11:11:23.591Z,1.60
2018-09-10T11:12:23.147Z,1.60
2018-09-10T11:13:23.295Z,1.70
2018-09-10T11:14:23.609Z,1.60
2018-09-10T11:15:23.281Z,1.60
2018-09-10T11:16:23.126Z,1.60
2018-09-10T11:17:23.390Z,1.60
2018-09-10T11:18:23.921Z,1.60
2018-09-10T11:19:23.301Z,1.60
2018-09-10T11:20:23.420Z,1.70
2018-09-10T11:21:23.189Z,1.70
2018-09-10T11:22:23.623Z,1.70
2018-09-10T11:23:23.257Z,1.70
2018-09-10T11:24:23.139Z,1.60
2018-09-10T11:25:24.462Z,1.80
2018-09-10T11:26:23.151Z,1.60
2018-09-10T11:27:23.522Z,1.70
2018-09-10T11:28:25.001Z,1.80
2018-09-10T11:29:23.506Z,1.50
2018-09-10T11:30:23.809Z,1.70
2018-09-10T11:31:23.670Z,1.50
2018-09-10T11:32:24.426Z,1.60
2018-09-10T11:33:23.300Z,1.60
2018-09-10T11:34:23.629Z,1.80
2018-09-10T11:35:23.422Z,1.60
2018-09-10T11:36:23.294Z,1.50
2018-09-10T11:37:23.755Z,1.80
2018-09-10T11:38:23.665Z,1.70
2018-09-10T11:39:23.297Z,1.80
2018-09-10T11:40:23.397Z,1.50
2018-09-10T11:41:23.272Z,1.50
2018-09-10T11:42:23.320Z,1.60
2018-09-10T11:43:23.309Z,1.80
2018-09-10T11:44:23.277Z,1.50
2018-09-10T11:45:23.256Z,1.50
2018-09-10T11:46:23.438Z,1.70
2018-09-10T11:47:23.294Z,1.80
2018-09-10T11:48:23.295Z,1.90
2018-09-10T11:49:23.288Z,1.60
2018-09-10T11:50:23.310Z,1.80
2018-09-10T11:51:23.381Z,1.70
2018-09-10T11:52:23.349Z,1.60
2018-09-10T11:53:23.320Z,1.70
2018-09-10T11:54:23.298Z,1.60
2018-09-10T11:55:23.420Z,1.40
2018-09-10T11:56:23.330Z,1.60
2018-09-10T11:57:23.489Z,1.50
2018-09-10T11:58:23.394Z,1.40
2018-09-10T11:59:23.381Z,1.60
2018-09-10T12:00:23.385Z,1.40
2018-09-10T12:01:23.374Z,1.60
2018-09-10T12:02:23.621Z,1.60
2018-09-10T12:03:23.343Z,1.40
2018-09-10T12:04:23.403Z,1.60
2018-09-10T12:05:23.392Z,1.40
2018-09-10T12:06:23.375Z,1.60
2018-09-10T12:07:23.418Z,1.40
2018-09-10T12:08:23.528Z,1.40
2018-09-10T12:09:23.401Z,1.50
2018-09-10T12:10:23.431Z,1.50
2018-09-10T12:11:23.409Z,1.50
2018-09-10T12:12:23.445Z,1.50
2018-09-10T12:13:23.447Z,1.80
2018-09-10T12:14:23.537Z,1.50
2018-09-10T12:15:23.474Z,1.50
2018-09-10T12:16:23.481Z,1.40
2018-09-10T12:17:24.310Z,1.50
2018-09-10T12:18:23.682Z,1.50
2018-09-10T12:19:23.434Z,1.50
2018-09-10T12:20:23.437Z,1.60
2018-09-10T12:21:23.484Z,1.60
2018-09-10T12:22:23.449Z,1.50
2018-09-10T12:23:23.454Z,2.00
2018-09-10T12:24:23.455Z,1.70
2018-09-10T12:25:23.459Z,1.40
2018-09-10T12:26:23.466Z,1.40
2018-09-10T12:27:23.469Z,1.40
2018-09-10T12:28:23.477Z,1.50
2018-09-10T12:29:23.482Z,1.50
2018-09-10T12:30:23.487Z,1.40
2018-09-10T12:31:23.491Z,1.30
2018-09-10T12:32:23.554Z,1.30
2018-09-10T12:33:23.505Z,1.30
2018-09-10T12:34:23.509Z,1.30
2018-09-10T12:35:23.509Z,1.30
2018-09-10T12:36:23.518Z,1.20
2018-09-10T12:37:23.525Z,1.50
2018-09-10T12:38:23.527Z,1.30
2018-09-10T12:39:23.554Z,1.40
2018-09-10T12:40:23.536Z,1.20
2018-09-10T12:41:23.542Z,1.60
2018-09-10T12:42:23.547Z,1.40
2018-09-10T12:43:23.552Z,1.40
2018-09-10T12:44:23.558Z,1.40
2018-09-10T12:45:23.564Z,1.60
2018-09-10T12:46:23.573Z,1.40
2018-09-10T12:47:23.577Z,1.50
2018-09-10T12:48:23.581Z,1.20
2018-09-10T12:49:23.587Z,1.40
2018-09-10T12:50:23.596Z,1.40
2018-09-10T12:51:23.594Z,1.40
2018-09-10T12:52:23.600Z,1.20
2018-09-10T12:53:23.607Z,1.70
2018-09-10T12:54:23.612Z,1.30
2018-09-10T12:55:23.617Z,1.40
2018-09-10T12:56:23.632Z,1.30
2018-09-10T12:57:23.631Z,1.40
2018-09-10T12:58:23.633Z,1.20
2018-09-10T12:59:24.232Z,1.50
2018-09-10T13:00:23.644Z,1.20
2018-09-10T13:01:23.647Z,1.30
2018-09-10T13:02:23.660Z,1.40
2018-09-10T13:03:23.657Z,1.30
2018-09-10T13:04:23.663Z,1.30
2018-09-10T13:05:23.667Z,1.50
2018-09-10T13:06:23.673Z,1.40
2018-09-10T13:07:23.677Z,1.60
2018-09-10T13:08:23.682Z,1.60
2018-09-10T13:09:23.687Z,1.30
2018-09-10T13:10:23.694Z,1.40
2018-09-10T13:11:23.701Z,1.30
2018-09-10T13:12:24.319Z,1.30
2018-09-10T13:13:23.710Z,1.30
2018-09-10T13:14:23.716Z,1.40
2018-09-10T13:15:23.724Z,1.40
2018-09-10T13:16:23.766Z,1.50
2018-09-10T13:17:23.737Z,1.10
2018-09-10T13:18:23.736Z,1.20